createdAt,value
2022-11-15T00:04:52.016Z,9.75
2022-11-15T00:19:57.617Z,9.63
2022-11-15T00:35:03.130Z,9.69
2022-11-15T00:50:12.962Z,9.69
2022-11-15T01:05:20.600Z,9.88
2022-11-15T01:20:26.203Z,9.75
2022-11-15T01:35:31.671Z,9.75
2022-11-15T01:50:37.227Z,9.81
2022-11-15T02:05:43.702Z,9.81
2022-11-15T02:21:13.895Z,9.81
2022-11-15T02:36:28.382Z,9.69
2022-11-15T02:51:35.125Z,9.81
2022-11-15T03:06:47.037Z,9.81
2022-11-15T03:21:54.014Z,9.75
2022-11-15T03:36:59.585Z,9.75
2022-11-15T03:52:06.393Z,9.63
2022-11-15T04:07:11.928Z,9.75
2022-11-15T04:22:35.489Z,9.69
2022-11-15T04:37:45.078Z,9.75
2022-11-15T04:52:56.951Z,9.75
2022-11-15T05:08:02.513Z,9.75
2022-11-15T05:23:08.094Z,9.63
2022-11-15T05:38:14.000Z,9.56
2022-11-15T05:53:23.144Z,9.63
2022-11-15T06:08:29.273Z,9.63
2022-11-15T06:23:37.474Z,9.44
2022-11-15T06:38:43.070Z,9.56
2022-11-15T06:53:48.676Z,9.56
2022-11-15T07:08:54.322Z,9.69
2022-11-15T07:24:00.062Z,9.69
2022-11-15T07:39:05.937Z,9.81
2022-11-15T07:54:11.565Z,9.75
2022-11-15T08:09:17.258Z,9.88
2022-11-15T08:24:22.788Z,10.06
2022-11-15T08:39:28.490Z,10.00
2022-11-15T08:54:34.268Z,10.06
2022-11-15T09:09:40.227Z,10.06
2022-11-15T09:24:45.831Z,10.06
2022-11-15T09:39:51.475Z,10.13
2022-11-15T09:54:57.220Z,10.19
2022-11-15T10:10:10.688Z,10.31
2022-11-15T10:25:24.907Z,10.56
2022-11-15T10:40:30.507Z,10.69
2022-11-15T10:55:37.129Z,10.88
2022-11-15T11:11:00.041Z,11.25
2022-11-15T11:26:21.164Z,11.38
2022-11-15T11:41:54.195Z,11.56
2022-11-15T11:57:02.588Z,11.63
2022-11-15T12:12:15.048Z,11.25
2022-11-15T12:27:28.580Z,11.25
2022-11-15T12:42:44.217Z,11.63
2022-11-15T12:57:49.937Z,11.69
2022-11-15T13:13:00.917Z,11.56
2022-11-15T13:28:15.261Z,11.44
2022-11-15T13:43:34.757Z,11.63
2022-11-15T13:58:42.228Z,11.56
2022-11-15T14:14:17.002Z,11.38
2022-11-15T14:29:31.092Z,11.19
2022-11-15T14:44:41.162Z,11.13
2022-11-15T14:59:50.964Z,10.94
2022-11-15T15:14:56.752Z,10.81
2022-11-15T15:30:02.747Z,10.81
2022-11-15T15:45:10.338Z,10.75
2022-11-15T16:00:17.163Z,10.63
2022-11-15T16:15:24.178Z,10.63
2022-11-15T16:30:31.123Z,10.50
2022-11-15T16:45:37.477Z,10.44
2022-11-15T17:00:43.560Z,10.44
2022-11-15T17:15:49.625Z,10.44
2022-11-15T17:30:55.778Z,10.44
2022-11-15T17:46:02.374Z,10.44
2022-11-15T18:01:15.934Z,10.50
2022-11-15T18:16:23.042Z,10.44
2022-11-15T18:31:31.239Z,10.44
2022-11-15T18:46:37.246Z,10.31
2022-11-15T19:01:47.475Z,10.31
2022-11-15T19:16:55.048Z,10.38
2022-11-15T19:32:00.997Z,10.44
2022-11-15T19:47:09.526Z,10.38
2022-11-15T20:02:15.464Z,10.44
2022-11-15T20:17:21.264Z,10.44
2022-11-15T20:32:26.754Z,10.38
2022-11-15T20:47:33.944Z,10.38
2022-11-15T21:02:40.201Z,10.38
2022-11-15T21:17:46.116Z,10.38
2022-11-15T21:32:51.934Z,10.31
2022-11-15T21:47:57.777Z,10.25
2022-11-15T22:03:03.610Z,10.13
2022-11-15T22:18:09.598Z,10.19
2022-11-15T22:33:15.555Z,10.19
2022-11-15T22:48:22.146Z,10.19
2022-11-15T23:03:28.513Z,10.25
2022-11-15T23:18:37.019Z,10.19
2022-11-15T23:34:00.906Z,10.19
2022-11-15T23:49:06.820Z,10.19
